Aviation Digital Data Service (ADDS)

Output produced by METARs form (2206 UTC 16 February 2019)
found at http://www.aviationweather.gov/metar/data/
 
METAR text: VTUV 162100Z AUTO 00000KT //// // 23/16 Q1011 A2986
Conditions at: VTUV (ROIET , TH) observed 2100 UTC 16 February 2019
Temperature: 23.0°C (73°F)
Dewpoint: 16.0°C (61°F) [RH = 65%]
Pressure (altimeter): 29.85 inches Hg (1011.0 mb)
Winds: calm
Visibility: missing
Ceiling: unknown
Clouds: missing
Weather: no significant weather observed at this time

METAR text: VTUV 162000Z AUTO 21005KT //// // 24/16 Q1011 A2987
Conditions at: VTUV (ROIET , TH) observed 2000 UTC 16 February 2019
Temperature: 24.0°C (75°F)
Dewpoint: 16.0°C (61°F) [RH = 61%]
Pressure (altimeter): 29.85 inches Hg (1011.0 mb)
Winds: from the SSW (210 degrees) at 6 MPH (5 knots; 2.6 m/s)
Visibility: missing
Ceiling: unknown
Clouds: missing
Weather: no significant weather observed at this time

METAR text: VTUV 161900Z AUTO 15004KT //// // 23/17 Q1011 A2986
Conditions at: VTUV (ROIET , TH) observed 1900 UTC 16 February 2019
Temperature: 23.0°C (73°F)
Dewpoint: 17.0°C (63°F) [RH = 69%]
Pressure (altimeter): 29.85 inches Hg (1011.0 mb)
Winds: from the SSE (150 degrees) at 5 MPH (4 knots; 2.1 m/s)
Visibility: missing
Ceiling: unknown
Clouds: missing
Weather: no significant weather observed at this time

METAR text: VTUV 161800Z AUTO 20003KT //// // 23/18 Q1011 A2987
Conditions at: VTUV (ROIET , TH) observed 1800 UTC 16 February 2019
Temperature: 23.0°C (73°F)
Dewpoint: 18.0°C (64°F) [RH = 73%]
Pressure (altimeter): 29.85 inches Hg (1011.0 mb)
Winds: from the SSW (200 degrees) at 3 MPH (3 knots; 1.5 m/s)
Visibility: missing
Ceiling: unknown
Clouds: missing
Weather: no significant weather observed at this time

METAR text: VTUV 161700Z AUTO 17003KT //// // 23/18 Q1011 A2987
Conditions at: VTUV (ROIET , TH) observed 1700 UTC 16 February 2019
Temperature: 23.0°C (73°F)
Dewpoint: 18.0°C (64°F) [RH = 73%]
Pressure (altimeter): 29.85 inches Hg (1011.0 mb)
Winds: from the S (170 degrees) at 3 MPH (3 knots; 1.5 m/s)
Visibility: missing
Ceiling: unknown
Clouds: missing
Weather: no significant weather observed at this time

METAR text: VTUV 161600Z AUTO 15002KT //// // 25/18 Q1012 A2988
Conditions at: VTUV (ROIET , TH) observed 1600 UTC 16 February 2019
Temperature: 25.0°C (77°F)
Dewpoint: 18.0°C (64°F) [RH = 65%]
Pressure (altimeter): 29.88 inches Hg (1012.0 mb)
Winds: from the SSE (150 degrees) at 2 MPH (2 knots; 1.0 m/s)
Visibility: missing
Ceiling: unknown
Clouds: missing
Weather: no significant weather observed at this time

METAR text: VTUV 161500Z AUTO 15005KT //// // 26/18 Q1012 A2988
Conditions at: VTUV (ROIET , TH) observed 1500 UTC 16 February 2019
Temperature: 26.0°C (79°F)
Dewpoint: 18.0°C (64°F) [RH = 61%]
Pressure (altimeter): 29.88 inches Hg (1012.0 mb)
Winds: from the SSE (150 degrees) at 6 MPH (5 knots; 2.6 m/s)
Visibility: missing
Ceiling: unknown
Clouds: missing
Weather: no significant weather observed at this time

METAR text: VTUV 161400Z 13004KT 7000 NSC 27/18 Q1011 NOSIG
Conditions at: VTUV (ROIET , TH) observed 1400 UTC 16 February 2019
Temperature: 27.0°C (81°F)
Dewpoint: 18.0°C (64°F) [RH = 58%]
Pressure (altimeter): 29.85 inches Hg (1011.0 mb)
Winds: from the SE (130 degrees) at 5 MPH (4 knots; 2.1 m/s)
Visibility: 4 miles ( 7 km)
Ceiling: at least 12,000 feet AGL
Clouds: sky clear below 12,000 feet AGL
Weather: no significant weather observed at this time

METAR text: VTUV 161300Z 13006KT 7000 NSC 28/17 Q1011 NOSIG
Conditions at: VTUV (ROIET , TH) observed 1300 UTC 16 February 2019
Temperature: 28.0°C (82°F)
Dewpoint: 17.0°C (63°F) [RH = 51%]
Pressure (altimeter): 29.85 inches Hg (1011.0 mb)
Winds: from the SE (130 degrees) at 7 MPH (6 knots; 3.1 m/s)
Visibility: 4 miles ( 7 km)
Ceiling: at least 12,000 feet AGL
Clouds: sky clear below 12,000 feet AGL
Weather: no significant weather observed at this time

METAR text: VTUV 161200Z 11004KT 7000 NSC 29/17 Q1010 NOSIG
Conditions at: VTUV (ROIET , TH) observed 1200 UTC 16 February 2019
Temperature: 29.0°C (84°F)
Dewpoint: 17.0°C (63°F) [RH = 48%]
Pressure (altimeter): 29.82 inches Hg (1010.0 mb)
Winds: from the ESE (110 degrees) at 5 MPH (4 knots; 2.1 m/s)
Visibility: 4 miles ( 7 km)
Ceiling: at least 12,000 feet AGL
Clouds: sky clear below 12,000 feet AGL
Weather: no significant weather observed at this time

METAR text: VTUV 161100Z 11006KT 6000 NSC 31/16 Q1010 NOSIG
Conditions at: VTUV (ROIET , TH) observed 1100 UTC 16 February 2019
Temperature: 31.0°C (88°F)
Dewpoint: 16.0°C (61°F) [RH = 40%]
Pressure (altimeter): 29.82 inches Hg (1010.0 mb)
Winds: from the ESE (110 degrees) at 7 MPH (6 knots; 3.1 m/s)
Visibility: 4 miles ( 6 km)
Ceiling: at least 12,000 feet AGL
Clouds: sky clear below 12,000 feet AGL
Weather: no significant weather observed at this time

METAR text: VTUV 161000Z 11007KT 7000 NSC 33/15 Q1010 NOSIG
Conditions at: VTUV (ROIET , TH) observed 1000 UTC 16 February 2019
Temperature: 33.0°C (91°F)
Dewpoint: 15.0°C (59°F) [RH = 34%]
Pressure (altimeter): 29.82 inches Hg (1010.0 mb)
Winds: from the ESE (110 degrees) at 8 MPH (7 knots; 3.6 m/s)
Visibility: 4 miles ( 7 km)
Ceiling: at least 12,000 feet AGL
Clouds: sky clear below 12,000 feet AGL
Weather: no significant weather observed at this time

METAR text: VTUV 160900Z 20006KT 150V250 7000 NSC 35/14 Q1010 NOSIG
Conditions at: VTUV (ROIET , TH) observed 0900 UTC 16 February 2019
Temperature: 35.0°C (95°F)
Dewpoint: 14.0°C (57°F) [RH = 28%]
Pressure (altimeter): 29.82 inches Hg (1010.0 mb)
Winds: from the SSW (200 degrees) at 7 MPH (6 knots; 3.1 m/s)
Visibility: 4 miles ( 7 km)
Ceiling: at least 12,000 feet AGL
Clouds: sky clear below 12,000 feet AGL
Weather: no significant weather observed at this time

METAR text: VTUV 160800Z 14006KT 080V210 7000 FEW035 35/15 Q1010 NOSIG
Conditions at: VTUV (ROIET , TH) observed 0800 UTC 16 February 2019
Temperature: 35.0°C (95°F)
Dewpoint: 15.0°C (59°F) [RH = 30%]
Pressure (altimeter): 29.82 inches Hg (1010.0 mb)
Winds: from the SE (140 degrees) at 7 MPH (6 knots; 3.1 m/s)
Visibility: 4 miles ( 7 km)
Ceiling: at least 12,000 feet AGL
Clouds: few clouds at 3500 feet AGL
Weather: no significant weather observed at this time

METAR text: VTUV 160700Z 17007KT 100V260 7000 NSC 35/15 Q1011 NOSIG
Conditions at: VTUV (ROIET , TH) observed 0700 UTC 16 February 2019
Temperature: 35.0°C (95°F)
Dewpoint: 15.0°C (59°F) [RH = 30%]
Pressure (altimeter): 29.85 inches Hg (1011.0 mb)
Winds: from the S (170 degrees) at 8 MPH (7 knots; 3.6 m/s)
Visibility: 4 miles ( 7 km)
Ceiling: at least 12,000 feet AGL
Clouds: sky clear below 12,000 feet AGL
Weather: no significant weather observed at this time

METAR text: VTUV 160600Z VRB07KT 7000 FEW030 34/15 Q1013 NOSIG
Conditions at: VTUV (ROIET , TH) observed 0600 UTC 16 February 2019
Temperature: 34.0°C (93°F)
Dewpoint: 15.0°C (59°F) [RH = 32%]
Pressure (altimeter): 29.91 inches Hg (1013.0 mb)
Winds: variable direction winds at 8 MPH (7 knots; 3.6 m/s)
Visibility: 4 miles ( 7 km)
Ceiling: at least 12,000 feet AGL
Clouds: few clouds at 3000 feet AGL
Weather: no significant weather observed at this time

METAR text: VTUV 160500Z 16007KT 070V210 7000 FEW030 33/16 Q1014 NOSIG
Conditions at: VTUV (ROIET , TH) observed 0500 UTC 16 February 2019
Temperature: 33.0°C (91°F)
Dewpoint: 16.0°C (61°F) [RH = 36%]
Pressure (altimeter): 29.94 inches Hg (1014.0 mb)
Winds: from the SSE (160 degrees) at 8 MPH (7 knots; 3.6 m/s)
Visibility: 4 miles ( 7 km)
Ceiling: at least 12,000 feet AGL
Clouds: few clouds at 3000 feet AGL
Weather: no significant weather observed at this time

METAR text: VTUV 160400Z 19006KT 120V260 7000 NSC 32/18 Q1015 NOSIG
Conditions at: VTUV (ROIET , TH) observed 0400 UTC 16 February 2019
Temperature: 32.0°C (90°F)
Dewpoint: 18.0°C (64°F) [RH = 43%]
Pressure (altimeter): 29.97 inches Hg (1015.0 mb)
Winds: from the S (190 degrees) at 7 MPH (6 knots; 3.1 m/s)
Visibility: 4 miles ( 7 km)
Ceiling: at least 12,000 feet AGL
Clouds: sky clear below 12,000 feet AGL
Weather: no significant weather observed at this time

METAR text: VTUV 160300Z 14009KT 7000 NSC 30/16 Q1016 NOSIG
Conditions at: VTUV (ROIET , TH) observed 0300 UTC 16 February 2019
Temperature: 30.0°C (86°F)
Dewpoint: 16.0°C (61°F) [RH = 43%]
Pressure (altimeter): 30.00 inches Hg (1016.0 mb)
Winds: from the SE (140 degrees) at 10 MPH (9 knots; 4.6 m/s)
Visibility: 4 miles ( 7 km)
Ceiling: at least 12,000 feet AGL
Clouds: sky clear below 12,000 feet AGL
Weather: no significant weather observed at this time

METAR text: VTUV 160200Z 12009KT 7000 NSC 27/17 Q1016 NOSIG
Conditions at: VTUV (ROIET , TH) observed 0200 UTC 16 February 2019
Temperature: 27.0°C (81°F)
Dewpoint: 17.0°C (63°F) [RH = 54%]
Pressure (altimeter): 30.00 inches Hg (1016.0 mb)
Winds: from the ESE (120 degrees) at 10 MPH (9 knots; 4.6 m/s)
Visibility: 4 miles ( 7 km)
Ceiling: at least 12,000 feet AGL
Clouds: sky clear below 12,000 feet AGL
Weather: no significant weather observed at this time

METAR text: VTUV 160100Z 09006KT 6000 NSC 24/18 Q1016 NOSIG
Conditions at: VTUV (ROIET , TH) observed 0100 UTC 16 February 2019
Temperature: 24.0°C (75°F)
Dewpoint: 18.0°C (64°F) [RH = 69%]
Pressure (altimeter): 30.00 inches Hg (1016.0 mb)
Winds: from the E (90 degrees) at 7 MPH (6 knots; 3.1 m/s)
Visibility: 4 miles ( 6 km)
Ceiling: at least 12,000 feet AGL
Clouds: sky clear below 12,000 feet AGL
Weather: no significant weather observed at this time

METAR text: VTUV 160000Z 08004KT 5000 BR NSC 20/17 Q1015 NOSIG
Conditions at: VTUV (ROIET , TH) observed 0000 UTC 16 February 2019
Temperature: 20.0°C (68°F)
Dewpoint: 17.0°C (63°F) [RH = 83%]
Pressure (altimeter): 29.97 inches Hg (1015.0 mb)
Winds: from the E (80 degrees) at 5 MPH (4 knots; 2.1 m/s)
Visibility: 3 miles ( 5 km)
Ceiling: at least 12,000 feet AGL
Clouds: sky clear below 12,000 feet AGL
Weather: BR  (mist)

METAR text: VTUV 152300Z 00000KT 5000 BR 20/18 Q1015 NOSIG
Conditions at: VTUV (ROIET , TH) observed 2300 UTC 15 February 2019
Temperature: 20.0°C (68°F)
Dewpoint: 18.0°C (64°F) [RH = 88%]
Pressure (altimeter): 29.97 inches Hg (1015.0 mb)
Winds: calm
Visibility: 3 miles ( 5 km)
Ceiling: unknown
Clouds: missing
Weather: BR  (mist)

METAR text: VTUV 152200Z AUTO VRB02KT //// // 21/17 Q1014 A2994
Conditions at: VTUV (ROIET , TH) observed 2200 UTC 15 February 2019
Temperature: 21.0°C (70°F)
Dewpoint: 17.0°C (63°F) [RH = 78%]
Pressure (altimeter): 29.94 inches Hg (1014.0 mb)
Winds: variable direction winds at 2 MPH (2 knots; 1.0 m/s)
Visibility: missing
Ceiling: unknown
Clouds: missing
Weather: no significant weather observed at this time

METAR text: VTUV 152100Z AUTO 00000KT //// // 20/17 Q1014 A2994
Conditions at: VTUV (ROIET , TH) observed 2100 UTC 15 February 2019
Temperature: 20.0°C (68°F)
Dewpoint: 17.0°C (63°F) [RH = 83%]
Pressure (altimeter): 29.94 inches Hg (1014.0 mb)
Winds: calm
Visibility: missing
Ceiling: unknown
Clouds: missing
Weather: no significant weather observed at this time

METAR text: VTUV 152000Z AUTO 00000KT //// // 20/18 Q1013 A2993
Conditions at: VTUV (ROIET , TH) observed 2000 UTC 15 February 2019
Temperature: 20.0°C (68°F)
Dewpoint: 18.0°C (64°F) [RH = 88%]
Pressure (altimeter): 29.91 inches Hg (1013.0 mb)
Winds: calm
Visibility: missing
Ceiling: unknown
Clouds: missing
Weather: no significant weather observed at this time

METAR text: VTUV 151900Z AUTO 00000KT //// // 21/18 Q1013 A2993
Conditions at: VTUV (ROIET , TH) observed 1900 UTC 15 February 2019
Temperature: 21.0°C (70°F)
Dewpoint: 18.0°C (64°F) [RH = 83%]
Pressure (altimeter): 29.91 inches Hg (1013.0 mb)
Winds: calm
Visibility: missing
Ceiling: unknown
Clouds: missing
Weather: no significant weather observed at this time

METAR text: VTUV 151800Z AUTO 00000KT //// // 22/19 Q1014 A2994
Conditions at: VTUV (ROIET , TH) observed 1800 UTC 15 February 2019
Temperature: 22.0°C (72°F)
Dewpoint: 19.0°C (66°F) [RH = 83%]
Pressure (altimeter): 29.94 inches Hg (1014.0 mb)
Winds: calm
Visibility: missing
Ceiling: unknown
Clouds: missing
Weather: no significant weather observed at this time

METAR text: VTUV 151700Z AUTO 00000KT //// // 23/18 Q1014 A2996
Conditions at: VTUV (ROIET , TH) observed 1700 UTC 15 February 2019
Temperature: 23.0°C (73°F)
Dewpoint: 18.0°C (64°F) [RH = 73%]
Pressure (altimeter): 29.94 inches Hg (1014.0 mb)
Winds: calm
Visibility: missing
Ceiling: unknown
Clouds: missing
Weather: no significant weather observed at this time

METAR text: VTUV 151600Z AUTO 12002KT //// // 23/19 Q1015 A2997
Conditions at: VTUV (ROIET , TH) observed 1600 UTC 15 February 2019
Temperature: 23.0°C (73°F)
Dewpoint: 19.0°C (66°F) [RH = 78%]
Pressure (altimeter): 29.97 inches Hg (1015.0 mb)
Winds: from the ESE (120 degrees) at 2 MPH (2 knots; 1.0 m/s)
Visibility: missing
Ceiling: unknown
Clouds: missing
Weather: no significant weather observed at this time

METAR text: VTUV 151500Z AUTO 00000KT //// // 24/17 Q1015 A2998
Conditions at: VTUV (ROIET , TH) observed 1500 UTC 15 February 2019
Temperature: 24.0°C (75°F)
Dewpoint: 17.0°C (63°F) [RH = 65%]
Pressure (altimeter): 29.97 inches Hg (1015.0 mb)
Winds: calm
Visibility: missing
Ceiling: unknown
Clouds: missing
Weather: no significant weather observed at this time

METAR text: VTUV 151400Z 00000KT 7000 NSC 25/18 Q1014 NOSIG
Conditions at: VTUV (ROIET , TH) observed 1400 UTC 15 February 2019
Temperature: 25.0°C (77°F)
Dewpoint: 18.0°C (64°F) [RH = 65%]
Pressure (altimeter): 29.94 inches Hg (1014.0 mb)
Winds: calm
Visibility: 4 miles ( 7 km)
Ceiling: at least 12,000 feet AGL
Clouds: sky clear below 12,000 feet AGL
Weather: no significant weather observed at this time

METAR text: VTUV 151300Z 10002KT 7000 NSC 26/16 Q1014 NOSIG
Conditions at: VTUV (ROIET , TH) observed 1300 UTC 15 February 2019
Temperature: 26.0°C (79°F)
Dewpoint: 16.0°C (61°F) [RH = 54%]
Pressure (altimeter): 29.94 inches Hg (1014.0 mb)
Winds: from the E (100 degrees) at 2 MPH (2 knots; 1.0 m/s)
Visibility: 4 miles ( 7 km)
Ceiling: at least 12,000 feet AGL
Clouds: sky clear below 12,000 feet AGL
Weather: no significant weather observed at this time

METAR text: VTUV 151200Z 09004KT 8000 NSC 28/16 Q1013 NOSIG
Conditions at: VTUV (ROIET , TH) observed 1200 UTC 15 February 2019
Temperature: 28.0°C (82°F)
Dewpoint: 16.0°C (61°F) [RH = 48%]
Pressure (altimeter): 29.91 inches Hg (1013.0 mb)
Winds: from the E (90 degrees) at 5 MPH (4 knots; 2.1 m/s)
Visibility: 5 miles ( 8 km)
Ceiling: at least 12,000 feet AGL
Clouds: sky clear below 12,000 feet AGL
Weather: no significant weather observed at this time

METAR text: VTUV 151100Z 09004KT 7000 NSC 31/14 Q1013 NOSIG
Conditions at: VTUV (ROIET , TH) observed 1100 UTC 15 February 2019
Temperature: 31.0°C (88°F)
Dewpoint: 14.0°C (57°F) [RH = 36%]
Pressure (altimeter): 29.91 inches Hg (1013.0 mb)
Winds: from the E (90 degrees) at 5 MPH (4 knots; 2.1 m/s)
Visibility: 4 miles ( 7 km)
Ceiling: at least 12,000 feet AGL
Clouds: sky clear below 12,000 feet AGL
Weather: no significant weather observed at this time

Forecast for: VTUV (ROIET , TH)
Text: TAF VTUV 161700Z 1618/1718 12005KT 7000 NSC
Forecast period: 1800 to 1900 UTC 16 February 2019
Forecast type: FROM: standard forecast or significant change
Winds: from the ESE (120 degrees) at 6 MPH (5 knots; 2.6 m/s)
Visibility: 4 miles (7 km)
Ceiling: unknown
Clouds: missing
Weather: no significant weather forecast for this period
Text: BECMG 1619/1621 5000 BR
Forecast period: 1900 UTC 16 February 2019 to 0200 UTC 17 February 2019
Forecast type: BECOMING: Conditions expected to become as follows by 2100 UTC 16 February 2019
Winds: from the ESE (120 degrees) at 6 MPH (5 knots; 2.6 m/s)
Visibility: 3 miles (5 km)
Ceiling: unknown
Clouds: missing
Weather: BR  (mist)
Text: BECMG 1702/1704 7000 NSW
Forecast period: 0200 to 1800 UTC 17 February 2019
Forecast type: BECOMING: Conditions expected to become as follows by 0400 UTC 17 February 2019
Winds: from the ESE (120 degrees) at 6 MPH (5 knots; 2.6 m/s)
Visibility: 4 miles (7 km)
Ceiling: unknown
Clouds: missing
Weather: NSW  (no significant weather)